Time;durP1;ratioP1;P1;durP2;ratioP2;P2;SDS_P1;SDS_P2;PMS_P1;PMS_P2;Temp;Humidity;BMP_temperature;BMP_pressure;BME280_temperature;BME280_humidity;BME280_pressure;Samples;Min_cycle;Max_cycle;Signal;HPM_P1;HPM_P2
2021/06/07 00:01:20;;;;;;;15.80;5.35;;;;;;;17.08;74.09;101823.06;5013773;28;20041;-67
2021/06/07 00:03:48;;;;;;;10.17;5.10;;;;;;;17.09;73.92;101822.75;5014078;28;20046;-71
2021/06/07 00:06:18;;;;;;;10.40;5.35;;;;;;;17.05;74.26;101815.38;5014094;28;20297;-69
2021/06/07 00:09:21;;;;;;;9.45;5.13;;;;;;;17.20;73.61;101826.81;4999879;28;20050;-62
2021/06/07 00:11:52;;;;;;;8.60;5.13;;;;;;;17.43;72.96;101824.63;5010772;28;20165;-65
2021/06/07 00:14:25;;;;;;;9.27;5.20;;;;;;;17.37;72.88;101823.16;5011152;28;20162;-67
2021/06/07 00:16:53;;;;;;;9.25;5.53;;;;;;;16.91;74.75;101818.38;5010990;28;20382;-68
2021/06/07 00:19:20;;;;;;;8.95;5.35;;;;;;;16.96;74.68;101820.97;4994920;28;20053;-71
2021/06/07 00:26:24;;;;;;;8.52;5.45;;;;;;;16.88;75.00;101819.00;5011106;28;20490;-68
2021/06/07 00:28:52;;;;;;;11.43;5.63;;;;;;;16.83;75.23;101808.88;5011591;28;20489;-70
2021/06/07 00:31:21;;;;;;;10.27;5.43;;;;;;;16.88;75.37;101809.84;5011065;28;20065;-68
2021/06/07 00:33:49;;;;;;;13.85;6.72;;;;;;;16.95;74.88;101810.16;5012534;28;20054;-65
2021/06/07 00:36:22;;;;;;;11.35;5.72;;;;;;;16.85;75.32;101816.88;5012167;28;20053;-70
2021/06/07 00:43:28;;;;;;;8.30;5.72;;;;;;;17.15;74.38;101810.28;5013544;28;20476;-65
2021/06/07 00:45:56;;;;;;;10.05;5.75;;;;;;;17.09;74.77;101810.78;5013011;28;20045;-66
2021/06/07 00:48:23;;;;;;;12.02;6.13;;;;;;;17.11;74.16;101812.09;5028283;28;20066;-68
2021/06/07 00:50:55;;;;;;;8.95;5.50;;;;;;;17.18;73.94;101811.59;4995774;28;20046;-66
2021/06/07 00:53:23;;;;;;;9.40;5.72;;;;;;;17.38;73.06;101811.69;5012875;28;20064;-70
2021/06/07 00:55:55;;;;;;;10.65;6.00;;;;;;;16.99;74.39;101806.38;5027905;28;20473;-65
2021/06/07 00:58:30;;;;;;;10.20;5.72;;;;;;;17.04;74.32;101802.59;5011781;28;20145;-67
2021/06/07 01:00:58;;;;;;;11.88;5.55;;;;;;;16.88;74.88;101811.47;5027136;28;20064;-67
2021/06/07 01:03:27;;;;;;;12.80;5.80;;;;;;;16.56;76.66;101805.59;5011219;28;20046;-65
2021/06/07 01:05:56;;;;;;;11.57;6.45;;;;;;;16.30;78.00;101813.09;5012718;28;20056;-69
2021/06/07 01:08:24;;;;;;;13.27;6.68;;;;;;;15.97;79.89;101811.88;5012631;28;20049;-68
2021/06/07 01:10:52;;;;;;;10.30;6.55;;;;;;;16.17;78.89;101806.53;5012864;28;20038;-66
2021/06/07 01:13:20;;;;;;;10.18;6.22;;;;;;;16.28;78.53;101801.47;5011168;28;20056;-68
2021/06/07 01:15:52;;;;;;;9.18;5.85;;;;;;;16.42;78.40;101810.47;5011396;28;20111;-67
2021/06/07 01:18:21;;;;;;;11.40;6.60;;;;;;;16.07;79.57;101804.06;5012211;28;20057;-71
2021/06/07 01:20:53;;;;;;;8.80;5.80;;;;;;;16.13;79.99;101802.75;5012551;28;20398;-71
2021/06/07 01:23:21;;;;;;;13.73;6.53;;;;;;;16.19;79.21;101800.63;5012375;28;20057;-68
2021/06/07 01:25:49;;;;;;;13.02;6.55;;;;;;;16.30;78.87;101799.97;5011290;28;20045;-65
2021/06/07 01:28:18;;;;;;;12.00;6.47;;;;;;;16.50;78.26;101802.16;5012380;28;20477;-65
2021/06/07 01:30:48;;;;;;;9.02;5.55;;;;;;;16.71;77.11;101807.88;5010688;28;20057;-66
2021/06/07 01:33:18;;;;;;;9.70;5.95;;;;;;;16.83;76.07;101799.69;5012125;28;20056;-71
2021/06/07 01:35:48;;;;;;;11.90;6.60;;;;;;;16.73;76.42;101805.59;5012227;28;20046;-68
2021/06/07 01:38:15;;;;;;;13.70;6.25;;;;;;;17.04;75.21;101803.44;5011082;28;20054;-68
2021/06/07 01:40:46;;;;;;;9.23;6.28;;;;;;;16.95;74.92;101802.63;5012428;28;20054;-68
2021/06/07 01:43:14;;;;;;;12.18;6.57;;;;;;;16.82;75.78;101800.84;5012436;28;20064;-68
2021/06/07 01:45:44;;;;;;;10.55;6.40;;;;;;;16.99;74.96;101794.44;5011013;28;20402;-68
2021/06/07 01:48:15;;;;;;;11.02;6.05;;;;;;;16.97;74.99;101805.91;5011555;28;20050;-68
2021/06/07 01:50:43;;;;;;;9.40;5.97;;;;;;;16.92;75.17;101794.94;5011982;28;20058;-66
2021/06/07 01:53:12;;;;;;;10.40;6.32;;;;;;;16.64;76.47;101797.25;5012070;28;20390;-64
2021/06/07 01:55:43;;;;;;;9.60;6.25;;;;;;;16.73;75.68;101798.09;5011540;28;20057;-64
2021/06/07 01:58:13;;;;;;;9.27;5.40;;;;;;;16.64;73.72;101793.66;5010427;28;20057;-64
2021/06/07 02:01:20;;;;;;;9.57;5.00;;;;;;;16.88;71.42;101790.38;5012081;28;20050;-67
2021/06/07 02:03:48;;;;;;;7.93;4.68;;;;;;;16.67;70.16;101790.22;4919531;29;20062;-67
2021/06/07 02:06:25;;;;;;;8.00;4.50;;;;;;;16.86;68.99;101796.25;4951688;29;20051;-68
2021/06/07 02:08:54;;;;;;;8.70;4.60;;;;;;;16.88;68.70;101798.72;4950946;29;20055;-65
2021/06/07 02:11:27;;;;;;;7.72;4.70;;;;;;;16.68;68.53;101794.63;4951003;29;20187;-68
2021/06/07 02:13:57;;;;;;;10.02;4.53;;;;;;;16.89;68.57;101798.38;4935045;29;20594;-66
2021/06/07 02:16:27;;;;;;;9.52;5.30;;;;;;;16.70;69.02;101795.94;4936015;29;20047;-67
2021/06/07 02:18:54;;;;;;;9.35;5.03;;;;;;;16.65;69.79;101793.31;4950970;29;20051;-66
2021/06/07 02:21:23;;;;;;;9.82;5.68;;;;;;;16.39;70.63;101798.03;4951635;29;20047;-67
2021/06/07 02:23:52;;;;;;;10.63;5.38;;;;;;;16.73;69.89;101794.47;4935249;29;20051;-67
2021/06/07 02:26:20;;;;;;;8.68;5.15;;;;;;;16.59;70.18;101799.38;4935812;29;20432;-68
2021/06/07 02:28:57;;;;;;;9.45;5.97;;;;;;;16.25;71.46;101794.59;4951105;29;20054;-65
2021/06/07 02:31:25;;;;;;;10.60;5.68;;;;;;;16.21;71.94;101790.00;4951040;29;20175;-67
2021/06/07 02:33:55;;;;;;;11.45;5.28;;;;;;;16.24;72.07;101798.53;4935711;29;20524;-67
2021/06/07 02:36:29;;;;;;;10.27;5.43;;;;;;;16.24;72.29;101798.53;4934855;29;20058;-68
2021/06/07 02:38:57;;;;;;;9.77;5.63;;;;;;;16.16;72.78;101795.72;5003848;28;20057;-69
2021/06/07 02:41:25;;;;;;;10.90;6.30;;;;;;;16.46;71.85;101803.09;5012460;28;20054;-67
2021/06/07 02:43:53;;;;;;;10.80;5.75;;;;;;;16.49;71.49;101792.16;5011879;28;20097;-70
2021/06/07 02:46:21;;;;;;;10.00;5.75;;;;;;;16.60;71.63;101792.66;5026804;28;20058;-70
2021/06/07 02:48:49;;;;;;;10.30;5.75;;;;;;;16.67;71.23;101790.22;5011630;28;20065;-64
2021/06/07 02:51:18;;;;;;;8.77;5.90;;;;;;;16.68;70.49;101800.22;5010604;28;20042;-65
2021/06/07 02:53:49;;;;;;;8.27;5.57;;;;;;;16.84;69.64;101795.78;5026765;28;20611;-69
2021/06/07 02:56:16;;;;;;;11.02;6.05;;;;;;;16.36;71.14;101797.88;4994077;28;20054;-69
2021/06/07 02:58:45;;;;;;;11.90;6.00;;;;;;;16.28;71.82;101801.47;5010656;28;20058;-64
2021/06/07 03:01:12;;;;;;;9.77;5.97;;;;;;;16.45;71.43;101801.47;5011386;28;20057;-65
2021/06/07 03:03:40;;;;;;;9.25;5.88;;;;;;;16.29;72.31;101800.31;5010165;28;20054;-67
2021/06/07 03:06:07;;;;;;;7.55;5.32;;;;;;;16.38;72.10;101804.75;5011300;28;20057;-70
2021/06/07 03:08:36;;;;;;;15.02;5.72;;;;;;;16.35;71.90;101804.59;5013646;28;20054;-68
2021/06/07 03:11:08;;;;;;;11.50;6.18;;;;;;;16.37;71.40;101807.84;5015025;28;20054;-68
2021/06/07 03:13:37;;;;;;;7.80;5.57;;;;;;;16.20;72.18;101797.53;5014876;28;20053;-68
2021/06/07 03:16:05;;;;;;;9.35;6.28;;;;;;;16.34;71.50;101806.53;5014651;28;20046;-69
2021/06/07 03:18:33;;;;;;;8.88;5.45;;;;;;;16.26;71.73;101799.00;5014738;28;20046;-66
2021/06/07 03:21:00;;;;;;;11.15;6.28;;;;;;;16.17;72.49;101800.13;5014800;28;20524;-67
2021/06/07 03:23:33;;;;;;;12.73;7.03;;;;;;;16.12;72.53;101795.56;5029639;28;20050;-73
2021/06/07 03:26:01;;;;;;;8.48;6.35;;;;;;;16.19;72.14;101797.84;4997415;28;20053;-67
2021/06/07 03:28:29;;;;;;;9.90;6.35;;;;;;;16.01;72.47;101804.50;5015161;28;20153;-68
2021/06/07 03:30:57;;;;;;;12.25;6.65;;;;;;;16.26;71.76;101801.78;5014603;28;20115;-65
2021/06/07 03:33:25;;;;;;;10.07;6.75;;;;;;;16.14;71.75;101801.63;5014512;28;20049;-67
2021/06/07 03:35:55;;;;;;;10.93;6.30;;;;;;;16.11;72.08;101793.91;5013670;28;20069;-68
2021/06/07 03:38:26;;;;;;;12.93;6.78;;;;;;;15.99;72.73;101798.47;5014421;28;20057;-70
2021/06/07 03:40:55;;;;;;;10.75;6.85;;;;;;;16.27;71.96;101788.69;5013284;28;20069;-71
2021/06/07 03:43:28;;;;;;;13.68;6.90;;;;;;;16.02;72.36;101797.81;5014527;28;20061;-69
2021/06/07 03:45:56;;;;;;;10.73;7.18;;;;;;;15.88;73.34;101788.81;5014545;28;20041;-72
2021/06/07 03:48:23;;;;;;;11.23;7.10;;;;;;;15.94;72.80;101795.81;5014284;28;20046;-72
2021/06/07 03:50:51;;;;;;;13.18;7.05;;;;;;;15.62;74.45;101792.28;5013862;28;20049;-69
2021/06/07 03:53:19;;;;;;;11.73;7.20;;;;;;;15.67;74.57;101797.69;5014246;28;20121;-68
2021/06/07 04:00:18;;;;;;;10.27;7.05;;;;;;;15.95;73.60;101800.25;5013864;28;20049;-69
2021/06/07 04:02:45;;;;;;;;;;;;;;;16.01;73.33;101793.38;5013089;28;20050;-68
2021/06/07 04:05:14;;;;;;;11.15;6.90;;;;;;;15.86;74.01;101799.41;5014901;28;19921;-68
2021/06/07 04:07:41;;;;;;;10.20;6.90;;;;;;;15.87;74.11;101795.47;5013840;28;20046;-73
2021/06/07 04:14:33;;;;;;;10.23;7.03;;;;;;;15.58;75.65;101791.31;5013877;28;20050;-69
2021/06/07 04:17:00;;;;;;;9.65;7.07;;;;;;;15.36;76.62;101787.75;5012936;28;20354;-70
2021/06/07 04:19:28;;;;;;;11.88;7.30;;;;;;;15.48;76.90;101791.59;5013537;28;20062;-67
2021/06/07 04:21:55;;;;;;;14.50;8.10;;;;;;;15.38;76.66;101791.84;5013428;28;20170;-67
2021/06/07 04:24:23;;;;;;;10.88;7.32;;;;;;;15.70;75.06;101791.53;5012127;28;20057;-66
2021/06/07 04:26:50;;;;;;;12.80;7.60;;;;;;;15.85;74.31;101792.22;5013914;28;20061;-67
2021/06/07 04:29:18;;;;;;;12.25;7.80;;;;;;;15.96;73.98;101788.81;4997184;28;20477;-64
2021/06/07 04:31:45;;;;;;;12.40;7.68;;;;;;;16.26;72.24;101798.19;5011959;28;20057;-65
2021/06/07 04:34:12;;;;;;;20.77;8.50;;;;;;;16.04;72.54;101792.75;5013542;28;20057;-66
2021/06/07 04:36:40;;;;;;;17.05;8.32;;;;;;;16.12;72.13;101795.56;5013028;28;20076;-69
2021/06/07 04:39:09;;;;;;;12.35;8.45;;;;;;;15.93;72.82;101794.19;5013628;28;20058;-68
2021/06/07 04:41:37;;;;;;;15.20;8.20;;;;;;;16.01;72.55;101788.66;5013032;28;20049;-67
2021/06/07 04:44:05;;;;;;;12.82;8.57;;;;;;;15.73;73.33;101792.81;5011588;28;20046;-67
2021/06/07 04:46:33;;;;;;;12.15;7.80;;;;;;;15.99;72.29;101795.69;5013125;28;20054;-65
2021/06/07 04:49:01;;;;;;;12.45;8.57;;;;;;;15.89;72.94;101798.75;5012612;28;20045;-69
2021/06/07 04:51:29;;;;;;;12.75;8.10;;;;;;;16.05;72.15;101795.22;5028195;28;20045;-65
2021/06/07 04:53:56;;;;;;;14.02;7.85;;;;;;;16.09;71.92;101801.75;5013257;28;20046;-68
2021/06/07 05:01:01;;;;;;;14.45;8.95;;;;;;;15.37;74.36;101797.72;5012805;28;20038;-66
2021/06/07 05:03:29;;;;;;;11.65;8.38;;;;;;;15.67;73.43;101803.25;5011717;28;20072;-67
2021/06/07 05:05:57;;;;;;;12.60;9.32;;;;;;;15.56;74.02;101801.09;5013380;28;20494;-65
2021/06/07 05:08:26;;;;;;;12.55;9.05;;;;;;;15.53;74.09;101796.19;5012610;28;20049;-63
2021/06/07 05:15:17;;;;;;;14.70;9.60;;;;;;;15.77;72.72;101800.22;5012937;28;20049;-70
2021/06/07 05:17:45;;;;;;;14.23;9.35;;;;;;;15.67;72.44;101800.47;5012712;28;20054;-69
2021/06/07 05:20:15;;;;;;;17.38;10.40;;;;;;;15.47;73.21;101806.63;5012734;28;20190;-69
2021/06/07 05:22:43;;;;;;;18.58;9.68;;;;;;;16.00;72.09;101797.31;5012731;28;20054;-70
2021/06/07 05:25:11;;;;;;;15.27;10.40;;;;;;;15.56;72.42;101807.47;5012352;28;20041;-70
2021/06/07 05:27:38;;;;;;;13.65;9.82;;;;;;;15.48;73.22;101797.13;5027647;28;20045;-70
2021/06/07 05:30:07;;;;;;;16.45;9.50;;;;;;;16.04;71.68;101798.31;5011462;28;20065;-68
2021/06/07 05:32:34;;;;;;;12.02;9.38;;;;;;;15.83;71.52;101800.84;5027485;28;20046;-69
2021/06/07 05:35:04;;;;;;;13.27;9.90;;;;;;;15.69;72.15;101800.19;5012197;28;20049;-68
2021/06/07 05:37:32;;;;;;;;;;;;;;;15.88;71.37;101797.97;5012458;28;20053;-71
2021/06/07 05:39:59;;;;;;;13.18;9.45;;;;;;;15.89;71.37;101804.31;5012308;28;19928;-69
2021/06/07 05:42:27;;;;;;;23.80;9.85;;;;;;;16.00;71.06;101800.94;5012290;28;20046;-68
2021/06/07 05:44:55;;;;;;;16.42;9.70;;;;;;;16.34;69.95;101798.19;5010661;28;20061;-69
2021/06/07 05:47:22;;;;;;;20.95;9.63;;;;;;;16.48;69.03;101811.97;5011112;28;20057;-73
2021/06/07 05:49:50;;;;;;;16.52;9.77;;;;;;;16.71;68.03;101811.50;5012264;28;20049;-71
2021/06/07 05:52:17;;;;;;;16.08;9.60;;;;;;;16.77;67.45;101812.16;5012189;28;20477;-67
2021/06/07 05:54:45;;;;;;;20.67;10.88;;;;;;;16.99;66.77;101800.00;5011778;28;20557;-70
2021/06/07 05:57:12;;;;;;;14.13;9.90;;;;;;;16.95;66.31;101804.56;5011932;28;20121;-67
2021/06/07 05:59:40;;;;;;;13.32;9.35;;;;;;;17.04;66.04;101797.88;5011667;28;20046;-67
2021/06/07 06:02:08;;;;;;;14.18;9.80;;;;;;;16.66;66.87;101806.09;5010498;28;20133;-69
2021/06/07 06:04:35;;;;;;;15.65;9.98;;;;;;;16.60;67.32;101809.34;5011849;28;20049;-72
2021/06/07 06:07:04;;;;;;;15.85;10.50;;;;;;;16.23;68.41;101809.97;5011507;28;20058;-70
2021/06/07 06:09:32;;;;;;;14.38;9.73;;;;;;;16.14;69.26;101807.19;5012501;28;20401;-70
2021/06/07 06:16:37;;;;;;;17.55;9.65;;;;;;;15.93;69.34;101817.25;5012105;28;20058;-69
2021/06/07 06:19:05;;;;;;;17.02;9.65;;;;;;;16.03;69.47;101816.13;5011552;28;20069;-68
2021/06/07 06:21:37;;;;;;;18.45;10.27;;;;;;;16.17;69.19;101809.31;5027339;28;20054;-68
2021/06/07 06:24:04;;;;;;;13.30;10.07;;;;;;;16.71;67.50;101810.66;4994298;28;20513;-65
2021/06/07 06:26:32;;;;;;;18.58;9.57;;;;;;;17.13;66.04;101811.75;5012151;28;20045;-67
2021/06/07 06:29:00;;;;;;;17.60;10.00;;;;;;;17.25;64.93;101809.09;5011673;28;20065;-67
2021/06/07 06:31:28;;;;;;;18.23;10.68;;;;;;;16.84;65.92;101818.84;5011799;28;20096;-70
2021/06/07 06:33:56;;;;;;;14.73;10.00;;;;;;;17.09;65.68;101817.16;5026838;28;20057;-66
2021/06/07 06:36:46;;;;;;;15.15;10.23;;;;;;;17.08;65.01;101820.28;5012479;28;20390;-70
2021/06/07 06:39:14;;;;;;;16.23;10.07;;;;;;;17.22;64.66;101809.78;5012096;28;20405;-64
2021/06/07 06:41:49;;;;;;;14.27;10.02;;;;;;;17.44;63.92;101820.69;5012811;28;20057;-65
2021/06/07 06:44:17;;;;;;;15.00;9.30;;;;;;;17.28;63.25;101814.84;5015237;28;20046;-68
2021/06/07 06:46:44;;;;;;;17.05;9.52;;;;;;;17.48;63.50;101813.34;5016179;28;20058;-65
2021/06/07 06:49:11;;;;;;;15.23;9.18;;;;;;;17.25;62.90;101814.69;5015417;28;20542;-65
2021/06/07 06:51:40;;;;;;;21.63;10.18;;;;;;;17.32;62.88;101810.25;5015545;28;20068;-65
2021/06/07 06:54:08;;;;;;;14.02;9.27;;;;;;;17.13;63.17;101812.59;5015836;28;20061;-63
2021/06/07 06:56:35;;;;;;;16.40;9.38;;;;;;;17.24;63.10;101813.06;5015251;28;20069;-62
2021/06/07 06:59:06;;;;;;;17.08;9.80;;;;;;;17.18;62.94;101806.84;5015266;28;20046;-69
2021/06/07 07:01:33;;;;;;;18.83;9.25;;;;;;;17.57;62.29;101814.13;5014861;28;20073;-66
2021/06/07 07:04:01;;;;;;;13.73;9.00;;;;;;;17.62;61.89;101808.38;5015432;28;20057;-66
2021/06/07 07:06:29;;;;;;;17.10;9.57;;;;;;;17.63;61.02;101813.59;5030248;28;20077;-65
2021/06/07 07:08:57;;;;;;;14.35;9.07;;;;;;;17.69;61.02;101809.50;5030131;28;20057;-66
2021/06/07 07:11:25;;;;;;;14.88;9.85;;;;;;;17.60;61.19;101805.91;5014979;28;20077;-65
2021/06/07 07:13:54;;;;;;;14.40;9.70;;;;;;;17.52;61.53;101817.09;5015386;28;20401;-68
2021/06/07 07:16:21;;;;;;;14.85;9.70;;;;;;;17.49;62.02;101817.75;5015005;28;20053;-67
2021/06/07 07:18:50;;;;;;;12.13;8.38;;;;;;;17.94;60.77;101816.88;4996666;28;20058;-66
2021/06/07 07:21:17;;;;;;;17.10;9.55;;;;;;;18.44;59.04;101811.38;5014850;28;20049;-66
2021/06/07 07:23:44;;;;;;;18.23;9.25;;;;;;;18.11;59.55;101807.63;5014711;28;20387;-66
2021/06/07 07:26:12;;;;;;;15.30;8.80;;;;;;;18.42;59.36;101815.63;5014995;28;20401;-66
2021/06/07 07:28:41;;;;;;;14.38;8.98;;;;;;;18.47;58.92;101809.84;5014733;28;20056;-67
2021/06/07 07:31:08;;;;;;;14.55;9.18;;;;;;;18.69;57.92;101812.31;5014426;28;20363;-65
2021/06/07 07:33:38;;;;;;;15.60;8.73;;;;;;;19.33;56.55;101807.91;5014586;28;20056;-70
2021/06/07 07:36:08;;;;;;;16.80;9.23;;;;;;;19.63;54.95;101805.75;5014509;28;20042;-66
2021/06/07 07:38:41;;;;;;;;;;;;;;;19.50;54.23;101810.50;5013876;28;20057;-72
2021/06/07 07:41:12;;;;;;;13.95;7.63;;;;;;;19.19;54.54;101801.81;5015261;28;19921;-67
2021/06/07 07:43:40;;;;;;;16.77;8.07;;;;;;;19.26;54.11;101798.44;5014186;28;20049;-66
2021/06/07 07:46:07;;;;;;;14.48;8.98;;;;;;;19.13;53.98;101803.16;5013576;28;20511;-66
2021/06/07 07:48:35;;;;;;;14.57;9.40;;;;;;;18.49;56.12;101805.56;5029371;28;20061;-65
2021/06/07 07:51:03;;;;;;;18.73;8.90;;;;;;;18.46;56.68;101813.81;5014004;28;20053;-66
2021/06/07 07:53:30;;;;;;;15.70;8.98;;;;;;;18.79;55.27;101809.88;5028471;28;20057;-65
2021/06/07 07:55:58;;;;;;;20.67;8.93;;;;;;;19.37;53.90;101803.25;5013051;28;20065;-68
2021/06/07 07:58:25;;;;;;;10.60;8.27;;;;;;;19.21;53.59;101812.63;5013943;28;20405;-69
2021/06/07 08:00:54;;;;;;;16.70;8.20;;;;;;;19.30;52.97;101810.56;5013468;28;20128;-70
2021/06/07 08:03:21;;;;;;;14.90;7.88;;;;;;;20.00;50.92;101802.59;5029299;28;20112;-68
2021/06/07 08:05:49;;;;;;;12.40;7.38;;;;;;;19.75;51.29;101800.16;5013552;28;20370;-69
2021/06/07 08:08:16;;;;;;;11.63;6.85;;;;;;;19.89;50.89;101800.63;5014096;28;20045;-72
2021/06/07 08:10:44;;;;;;;10.63;7.07;;;;;;;20.35;49.38;101791.75;5011813;28;20045;-67
2021/06/07 08:17:37;;;;;;;9.27;6.25;;;;;;;19.52;50.18;101793.38;5014181;28;20057;-65
2021/06/07 08:20:07;;;;;;;13.20;7.03;;;;;;;19.17;51.74;101803.28;5013863;28;20505;-66
2021/06/07 08:22:34;;;;;;;11.27;5.93;;;;;;;19.95;50.40;101797.25;5013509;28;20522;-66
2021/06/07 08:25:03;;;;;;;11.82;6.63;;;;;;;19.63;50.16;101794.56;5011236;28;20054;-68
2021/06/07 08:27:31;;;;;;;11.23;5.75;;;;;;;19.80;49.92;101789.56;5012949;28;20173;-69
2021/06/07 08:29:58;;;;;;;15.68;6.07;;;;;;;19.89;52.05;101790.25;5012487;28;20542;-69
2021/06/07 08:32:26;;;;;;;17.35;6.38;;;;;;;19.75;49.94;101795.38;5013372;28;20069;-67
2021/06/07 08:34:53;;;;;;;14.40;6.20;;;;;;;19.32;50.12;101795.09;5012868;28;20061;-65
2021/06/07 08:37:21;;;;;;;17.55;6.13;;;;;;;19.21;50.27;101799.47;5013419;28;20050;-67
2021/06/07 08:39:48;;;;;;;16.80;5.80;;;;;;;19.77;49.49;101801.44;5028333;28;20069;-70
2021/06/07 08:42:15;;;;;;;15.10;6.38;;;;;;;20.41;47.37;101789.50;5012726;28;20061;-71
2021/06/07 08:44:43;;;;;;;19.98;6.50;;;;;;;20.71;46.87;101791.63;5013195;28;20042;-67
2021/06/07 08:47:10;;;;;;;14.20;5.80;;;;;;;20.42;47.35;101796.72;5013142;28;20057;-69
2021/06/07 08:49:40;;;;;;;;;;;;;;;20.44;46.67;101792.41;5013356;28;20050;-68
2021/06/07 08:52:10;;;;;;;12.77;5.30;;;;;;;20.85;46.40;101780.81;5028534;28;19928;-69
2021/06/07 08:54:37;;;;;;;15.90;6.45;;;;;;;20.59;46.36;101790.88;5013355;28;20046;-69
2021/06/07 08:57:08;;;;;;;14.27;5.25;;;;;;;20.68;46.36;101789.53;5012989;28;20042;-67
2021/06/07 08:59:36;;;;;;;14.18;5.50;;;;;;;20.85;46.21;101796.84;5012443;28;20054;-68
2021/06/07 09:02:04;;;;;;;16.60;5.60;;;;;;;21.02;46.08;101790.94;5013191;28;20485;-71
2021/06/07 09:04:46;;;;;;;18.20;6.03;;;;;;;20.95;45.35;101788.75;5012437;28;20046;-71
2021/06/07 09:07:17;;;;;;;17.98;5.53;;;;;;;20.66;47.65;101783.47;5013035;28;20046;-69
2021/06/07 09:10:12;;;;;;;15.93;6.35;;;;;;;20.31;49.83;101796.41;5012636;28;20046;-69
2021/06/07 09:12:43;;;;;;;11.40;6.43;;;;;;;20.50;49.41;101787.41;5012300;28;20046;-66
2021/06/07 09:15:38;;;;;;;16.48;5.63;;;;;;;21.08;48.12;101795.09;5011172;28;20046;-67
2021/06/07 09:18:14;;;;;;;21.13;6.45;;;;;;;20.58;49.48;101789.22;5006401;28;20050;-65
2021/06/07 09:20:43;;;;;;;17.83;6.72;;;;;;;20.68;49.26;101788.72;5011793;28;20490;-64
2021/06/07 09:23:14;;;;;;;16.23;6.85;;;;;;;20.54;49.09;101791.13;5011137;28;20069;-65
2021/06/07 09:25:45;;;;;;;23.77;6.70;;;;;;;20.17;49.33;101785.59;5012808;28;20054;-65
2021/06/07 09:28:22;;;;;;;15.32;5.85;;;;;;;20.16;49.58;101785.94;5026941;28;20049;-67
2021/06/07 09:30:49;;;;;;;12.23;5.20;;;;;;;20.52;48.85;101787.88;4994454;28;20049;-63
2021/06/07 09:33:32;;;;;;;13.93;5.78;;;;;;;20.48;47.43;101786.94;5012241;28;20540;-62
2021/06/07 09:36:11;;;;;;;15.70;5.85;;;;;;;20.40;46.95;101797.09;5010473;28;20050;-64
2021/06/07 09:39:23;;;;;;;14.02;6.00;;;;;;;20.40;45.39;101797.09;5012177;28;20057;-66
2021/06/07 09:45:47;;;;;;;9.10;4.20;;;;;;;20.76;44.07;101790.56;4970943;28;20077;-69
2021/06/07 09:48:17;;;;;;;12.60;4.75;;;;;;;20.61;43.96;101786.53;4970691;28;20050;-66
2021/06/07 09:50:59;;;;;;;9.40;4.00;;;;;;;20.71;43.45;101791.63;4970773;28;20058;-70
2021/06/07 09:53:51;;;;;;;11.00;3.72;;;;;;;20.88;43.26;101791.34;4970287;28;20065;-68
2021/06/07 09:56:20;;;;;;;8.82;4.20;;;;;;;20.81;43.51;101802.34;4970873;28;20047;-66
2021/06/07 09:58:48;;;;;;;8.13;4.20;;;;;;;20.56;42.81;101783.97;4970847;28;20062;-67
2021/06/07 10:01:22;;;;;;;10.23;4.47;;;;;;;20.69;44.66;101795.97;4971252;28;20050;-67
2021/06/07 10:03:57;;;;;;;11.48;4.93;;;;;;;20.59;45.04;101793.66;4971401;28;20434;-65
2021/06/07 10:06:34;;;;;;;14.68;5.30;;;;;;;20.42;45.86;101789.16;4970554;28;20070;-67
2021/06/07 10:09:07;;;;;;;9.73;4.60;;;;;;;20.61;45.86;101777.31;4955548;28;20058;-65
2021/06/07 10:11:40;;;;;;;9.55;4.28;;;;;;;20.92;44.69;101783.03;4970849;28;20062;-63
2021/06/07 10:14:15;;;;;;;9.93;4.30;;;;;;;21.07;43.60;101779.47;4970542;28;20047;-68
2021/06/07 10:17:02;;;;;;;7.97;3.47;;;;;;;20.71;42.64;101777.63;4982715;28;20061;-65
2021/06/07 10:19:41;;;;;;;9.23;3.67;;;;;;;20.81;42.26;101779.94;5015639;28;20054;-64
2021/06/07 10:22:09;;;;;;;8.40;3.50;;;;;;;20.80;41.57;101785.91;5016230;28;20417;-63
2021/06/07 10:24:39;;;;;;;7.35;3.30;;;;;;;20.87;42.21;101772.88;5015937;28;20075;-67
2021/06/07 10:27:07;;;;;;;9.02;3.72;;;;;;;21.25;41.55;101786.38;5014297;28;20065;-65
2021/06/07 10:29:37;;;;;;;9.27;3.30;;;;;;;21.18;41.83;101772.19;5015405;28;20054;-70
2021/06/07 10:32:09;;;;;;;6.93;3.08;;;;;;;21.37;41.60;101777.91;5015734;28;20061;-66
2021/06/07 10:34:51;;;;;;;7.57;3.33;;;;;;;20.92;41.54;101769.03;5031051;28;20513;-65
2021/06/07 10:37:19;;;;;;;11.90;3.83;;;;;;;21.10;41.96;101770.34;5014521;28;20081;-68
2021/06/07 10:39:48;;;;;;;11.10;3.53;;;;;;;21.33;40.39;101771.38;5015569;28;20054;-67
2021/06/07 10:42:30;;;;;;;7.70;4.47;;;;;;;21.36;40.56;101770.66;5015457;28;20060;-65
2021/06/07 10:45:03;;;;;;;9.27;3.47;;;;;;;21.24;41.03;101770.72;5013673;28;20389;-68
2021/06/07 10:47:44;;;;;;;6.43;3.17;;;;;;;21.33;40.67;101774.19;5014339;28;20439;-71
2021/06/07 10:50:15;;;;;;;7.18;3.63;;;;;;;21.56;41.40;101766.78;5016022;28;20049;-66
2021/06/07 10:52:50;;;;;;;7.28;3.38;;;;;;;21.54;39.09;101757.91;5013019;28;20521;-65
2021/06/07 10:55:29;;;;;;;7.18;2.53;;;;;;;22.13;38.00;101752.97;5015071;28;20046;-63
2021/06/07 11:02:21;;;;;;;9.73;3.17;;;;;;;21.61;39.18;101760.91;5015450;28;20540;-67
2021/06/07 11:05:11;;;;;;;5.78;2.70;;;;;;;21.74;38.72;101764.44;5015235;28;20073;-66
2021/06/07 11:07:43;;;;;;;7.47;2.80;;;;;;;21.94;38.49;101763.31;5015438;28;20061;-67
2021/06/07 11:10:30;;;;;;;6.07;2.80;;;;;;;21.78;38.67;101763.34;5015491;28;20465;-66
2021/06/07 11:17:24;;;;;;;12.02;3.40;;;;;;;22.01;39.71;101767.13;5015274;28;20046;-67
2021/06/07 11:19:52;;;;;;;4.97;2.88;;;;;;;21.87;38.58;101755.56;5012798;28;20050;-66
2021/06/07 11:22:20;;;;;;;5.53;3.15;;;;;;;22.11;38.54;101755.31;5014791;28;20053;-66
2021/06/07 11:24:47;;;;;;;9.63;3.47;;;;;;;22.15;38.78;101752.59;5013686;28;20058;-67
2021/06/07 11:27:39;;;;;;;5.60;3.28;;;;;;;21.89;38.91;101753.22;5027984;28;20060;-68
2021/06/07 11:30:15;;;;;;;7.97;2.93;;;;;;;22.64;37.65;101736.84;5014362;28;20046;-66
2021/06/07 11:32:42;;;;;;;6.93;2.70;;;;;;;22.55;38.08;101744.69;5014761;28;20312;-65
2021/06/07 11:35:39;;;;;;;6.55;2.40;;;;;;;22.54;38.11;101745.88;5015076;28;20053;-66
2021/06/07 11:38:36;;;;;;;6.10;2.75;;;;;;;21.90;38.55;101751.19;5029449;28;20501;-65
2021/06/07 11:41:44;;;;;;;7.32;2.90;;;;;;;21.78;38.67;101748.50;4972775;28;20450;-67
2021/06/07 11:47:51;;;;;;;5.15;3.28;;;;;;;22.17;38.58;101730.59;4989355;28;20058;-71
2021/06/07 11:50:31;;;;;;;5.15;2.50;;;;;;;22.38;38.43;101735.84;4956944;28;20059;-73
2021/06/07 11:53:14;;;;;;;7.00;2.50;;;;;;;22.22;38.05;101733.09;4973238;28;20533;-70
2021/06/07 11:55:48;;;;;;;5.35;2.30;;;;;;;22.35;38.11;101729.78;4972774;28;20055;-69
2021/06/07 12:03:04;;;;;;;7.60;3.20;;;;;;;22.29;37.87;101730.47;4972361;28;20046;-67
2021/06/07 12:05:31;;;;;;;6.07;2.60;;;;;;;22.43;37.56;101732.75;4973247;28;20078;-67
2021/06/07 12:08:07;;;;;;;9.35;2.67;;;;;;;22.64;37.79;101738.84;4956683;28;20050;-72
2021/06/07 12:10:38;;;;;;;3.97;2.38;;;;;;;22.96;36.45;101717.81;4972190;28;20050;-70
2021/06/07 12:13:14;;;;;;;6.05;2.75;;;;;;;23.28;35.90;101705.16;4971271;28;20051;-67
2021/06/07 12:20:09;;;;;;;6.10;2.72;;;;;;;22.95;37.01;101714.19;5013623;28;20042;-66
2021/06/07 12:22:39;;;;;;;5.22;2.25;;;;;;;23.32;36.49;101720.94;5013683;28;20049;-65
2021/06/07 12:35:10;;;;;;;5.85;2.70;;;;;;;22.96;36.72;101715.00;5013314;28;20045;-66
2021/06/07 12:37:39;;;;;;;8.23;2.47;;;;;;;22.89;37.41;101709.25;5013355;28;20363;-64
2021/06/07 12:40:18;;;;;;;6.80;2.58;;;;;;;22.97;36.86;101716.63;5013105;28;20481;-67
2021/06/07 12:43:07;;;;;;;6.00;2.38;;;;;;;23.30;36.21;101708.41;5013280;28;20054;-66
2021/06/07 12:50:26;;;;;;;9.70;2.60;;;;;;;22.60;38.12;101724.72;5012817;28;20041;-69
2021/06/07 12:52:56;;;;;;;6.15;3.30;;;;;;;22.52;38.16;101722.13;4955605;28;20042;-70